Аэропорт: Оренбург-Центральный. Оренбург

ICAO: UWOO

METAR:
2023-03-31 16:00:00
UWOO 311600Z 14003MPS 9999 BKN040CB 06/02 Q1018 WS R08 R08/CLRD60 NOSIG RMK QFE753/1004
METAR:
2023-03-31 14:22:00
TAF AMD UWOO 311422Z 3115/0115 12005G12MPS 6000 BKN020 TX15/0110Z TN04/0102Z TEMPO 3115/0115 14007G15MPS -SHRA BKN016CB